Scenic, South Dakota
Current Conditions -  °F | °C
As of 9:52 AM on Sunday 21 Dec 2014 (Local Time) from KRAP Reporting Station
Clear Clear  
Wind Chill: 26°   Ceiling: Unl
Heat Index: 32°   Visibility: 10mi
Dew Point: 27°   Wind: 6mph
Humidity: 82%   Direction: 210°SSW
Pressure: 29.47"   Gusts: NA
Location:  43.78°N, 102.56°W
Report Text: KRAP 211652Z 21005KT 10SM CLR 00/M03 A2947 RMK AO2 SLP003 T00001028
Loading
Personal Weather Stations






























Interactive Weather Map New forecast layout! Learn more

10-Day Weather Forecast

Advertisements
Track Severe Weather on mobile